Serenity — FI2101 — position and weather

sailwx.info

Track history (hours):
 
Tides and Currents Weather Stations Pressure Air Temp Water Temp Dewpoint Dewpoint Depression Visibility Wind Speed Wind Dir Waves Ship Positions

Serenity

Last reported at 2017-Nov-28 23:26 UTC. Time now 2018-Jan-20 23:14 UTC.
Position N 27°57' W 015°21'.
Warning: this ship's position is 52 days out of date.

Length 10 m.

Type: Sailing vessel. MMSI: 227158710.

Date/timePositionNaut miles runAvg speedWind from/ knotsBaromVisibWave heightAir tempDewpointWater temp
2017-Nov-28 23:26N 27°57' W 015°21'2 3.8
2017-Nov-28 23:00N 27°59' W 015°21'2 3.3
2017-Nov-28 22:30N 28°00' W 015°22'2 3.2
2017-Nov-28 22:00N 28°02' W 015°22'2 3.4
2017-Nov-28 21:27N 28°03' W 015°23'2 3.8
2017-Nov-28 21:00N 28°05' W 015°24'2 3.8
2017-Nov-28 20:30N 28°07' W 015°25'  
2017-Nov-24 18:23N 28°08' W 015°26'1 2.8
2017-Nov-24 17:57N 28°07' W 015°24'2 4.1
2017-Nov-24 17:26N 28°09' W 015°23'1 2.3
2017-Nov-24 16:56N 28°10' W 015°22'0 0.6
2017-Nov-24 16:26N 28°10' W 015°22'2 3.5
2017-Nov-24 15:56N 28°11' W 015°24'2 4.7
2017-Nov-24 15:26N 28°10' W 015°27'1 1.5
2017-Nov-24 14:55N 28°11' W 015°26'2 4.8
2017-Nov-24 14:25N 28°11' W 015°23'2 4.6
2017-Nov-24 13:55N 28°09' W 015°23'2 4.3
2017-Nov-24 13:31N 28°07' W 015°24'1 2.2
2017-Nov-24 12:59N 28°08' W 015°26'  
2017-Nov-19 14:38N 28°08' W 015°25'0 0.1
2017-Nov-19 14:22N 28°08' W 015°25'1 2.8
2017-Nov-19 14:00N 28°07' W 015°24'2 3.0
2017-Nov-19 13:30N 28°07' W 015°23'1 2.6
2017-Nov-19 13:00N 28°08' W 015°22'2 3.0
2017-Nov-19 12:30N 28°10' W 015°22'1 2.6
2017-Nov-19 12:00N 28°10' W 015°21'2 3.2
2017-Nov-19 11:30N 28°11' W 015°19'2 3.5
2017-Nov-19 11:00N 28°12' W 015°17'2 3.4
2017-Nov-19 10:30N 28°12' W 015°15'2 3.8
2017-Nov-19 10:00N 28°12' W 015°13'2 4.2
2017-Nov-19 09:30N 28°13' W 015°11'2 4.6
2017-Nov-19 09:00N 28°12' W 015°08'2 4.6
2017-Nov-19 08:30N 28°13' W 015°06'2 4.7
2017-Nov-19 08:00N 28°13' W 015°03'2 4.5
2017-Nov-19 07:30N 28°14' W 015°01'2 5.0
2017-Nov-19 07:00N 28°15' W 014°58'3 4.9
2017-Nov-19 06:29N 28°16' W 014°56'  
Track history (hours):
 
Tides and Currents Weather Stations Pressure Air Temp Water Temp Dewpoint Dewpoint Depression Visibility Wind Speed Wind Dir Waves Ship Positions

Serenity

Last reported at 2017-Nov-28 23:26 UTC. Time now 2018-Jan-20 23:14 UTC.
Position N 27°57' W 015°21'.
Warning: this ship's position is 52 days out of date.

Length 10 m.

Type: Sailing vessel. MMSI: 227158710.

Date/timePositionNaut miles runAvg speedWind from/ knotsBaromVisibWave heightAir tempDewpointWater temp
2017-Nov-28 23:26N 27°57' W 015°21'2 3.8
2017-Nov-28 23:00N 27°59' W 015°21'2 3.3
2017-Nov-28 22:30N 28°00' W 015°22'2 3.2
2017-Nov-28 22:00N 28°02' W 015°22'2 3.4
2017-Nov-28 21:27N 28°03' W 015°23'2 3.8
2017-Nov-28 21:00N 28°05' W 015°24'2 3.8
2017-Nov-28 20:30N 28°07' W 015°25'  
2017-Nov-24 18:23N 28°08' W 015°26'1 2.8
2017-Nov-24 17:57N 28°07' W 015°24'2 4.1
2017-Nov-24 17:26N 28°09' W 015°23'1 2.3
2017-Nov-24 16:56N 28°10' W 015°22'0 0.6
2017-Nov-24 16:26N 28°10' W 015°22'2 3.5
2017-Nov-24 15:56N 28°11' W 015°24'2 4.7
2017-Nov-24 15:26N 28°10' W 015°27'1 1.5
2017-Nov-24 14:55N 28°11' W 015°26'2 4.8
2017-Nov-24 14:25N 28°11' W 015°23'2 4.6
2017-Nov-24 13:55N 28°09' W 015°23'2 4.3
2017-Nov-24 13:31N 28°07' W 015°24'1 2.2
2017-Nov-24 12:59N 28°08' W 015°26'  
2017-Nov-19 14:38N 28°08' W 015°25'0 0.1
2017-Nov-19 14:22N 28°08' W 015°25'1 2.8
2017-Nov-19 14:00N 28°07' W 015°24'2 3.0
2017-Nov-19 13:30N 28°07' W 015°23'1 2.6
2017-Nov-19 13:00N 28°08' W 015°22'2 3.0
2017-Nov-19 12:30N 28°10' W 015°22'1 2.6
2017-Nov-19 12:00N 28°10' W 015°21'2 3.2
2017-Nov-19 11:30N 28°11' W 015°19'2 3.5
2017-Nov-19 11:00N 28°12' W 015°17'2 3.4
2017-Nov-19 10:30N 28°12' W 015°15'2 3.8
2017-Nov-19 10:00N 28°12' W 015°13'2 4.2
2017-Nov-19 09:30N 28°13' W 015°11'2 4.6
2017-Nov-19 09:00N 28°12' W 015°08'2 4.6
2017-Nov-19 08:30N 28°13' W 015°06'2 4.7
2017-Nov-19 08:00N 28°13' W 015°03'2 4.5
2017-Nov-19 07:30N 28°14' W 015°01'2 5.0
2017-Nov-19 07:00N 28°15' W 014°58'3 4.9
2017-Nov-19 06:29N 28°16' W 014°56'  

Dump ship's entire track history